createdAt,value
2019-04-29T00:00:50.432Z,18.07
2019-04-29T00:03:22.884Z,20.43
2019-04-29T00:05:53.703Z,18.50
2019-04-29T00:08:24.269Z,17.27
2019-04-29T00:10:54.597Z,16.33
2019-04-29T00:13:26.494Z,20.67
2019-04-29T00:16:31.119Z,16.77
2019-04-29T00:19:38.659Z,16.37
2019-04-29T00:22:09.000Z,18.70
2019-04-29T00:24:39.357Z,18.80
2019-04-29T00:27:09.703Z,16.40
2019-04-29T00:29:40.320Z,21.77
2019-04-29T00:32:10.931Z,16.67
2019-04-29T00:34:41.312Z,15.27
2019-04-29T00:37:26.161Z,17.40
2019-04-29T00:40:19.900Z,20.87
2019-04-29T00:43:00.273Z,19.03
2019-04-29T00:45:32.617Z,20.37
2019-04-29T00:48:03.009Z,16.00
2019-04-29T00:50:33.341Z,14.53
2019-04-29T00:53:03.740Z,17.97
2019-04-29T00:55:34.560Z,23.43
2019-04-29T00:58:04.954Z,18.00
2019-04-29T01:00:40.375Z,18.37
2019-04-29T01:03:10.970Z,17.43
2019-04-29T01:05:41.502Z,18.07
2019-04-29T01:08:11.859Z,14.13
2019-04-29T01:10:42.321Z,17.10
2019-04-29T01:13:13.245Z,16.27
2019-04-29T01:15:47.065Z,20.60
2019-04-29T01:18:17.821Z,19.40
2019-04-29T01:20:48.305Z,21.37
2019-04-29T01:23:18.693Z,15.57
2019-04-29T01:25:52.491Z,17.23
2019-04-29T01:28:28.700Z,18.10
2019-04-29T01:31:07.567Z,18.60
2019-04-29T01:33:38.068Z,15.33
2019-04-29T01:36:32.346Z,21.03
2019-04-29T01:39:04.745Z,16.47
2019-04-29T01:41:46.369Z,16.60
2019-04-29T01:44:17.383Z,13.60
2019-04-29T01:46:48.878Z,17.10
2019-04-29T01:49:19.406Z,16.97
2019-04-29T01:51:50.951Z,15.97
2019-04-29T01:54:21.785Z,21.93
2019-04-29T01:56:52.252Z,17.60
2019-04-29T01:59:22.648Z,16.80
2019-04-29T02:01:53.283Z,18.23
2019-04-29T02:04:23.713Z,20.30
2019-04-29T02:06:54.605Z,16.73
2019-04-29T02:09:32.417Z,17.77
2019-04-29T02:12:03.190Z,20.53
2019-04-29T02:14:33.621Z,17.47
2019-04-29T02:17:05.431Z,21.97
2019-04-29T02:19:36.414Z,22.07
2019-04-29T02:22:22.604Z,18.90
2019-04-29T02:24:57.303Z,22.10
2019-04-29T02:27:28.939Z,18.00
2019-04-29T02:29:59.387Z,18.40
2019-04-29T02:32:30.045Z,18.90
2019-04-29T02:35:00.587Z,19.30
2019-04-29T02:37:35.079Z,18.40
2019-04-29T02:40:29.273Z,16.00
2019-04-29T02:43:05.204Z,19.67
2019-04-29T02:45:37.653Z,16.07
2019-04-29T02:48:09.652Z,22.13
2019-04-29T02:50:40.497Z,23.07
2019-04-29T02:53:10.971Z,18.70
2019-04-29T02:55:46.284Z,16.53
2019-04-29T02:58:44.576Z,22.03
2019-04-29T03:01:39.703Z,18.63
2019-04-29T03:04:14.552Z,20.43
2019-04-29T03:06:45.141Z,19.80
2019-04-29T03:09:16.077Z,23.00
2019-04-29T03:11:46.474Z,20.17
2019-04-29T03:14:17.126Z,19.67
2019-04-29T03:16:47.637Z,23.97
2019-04-29T03:19:23.307Z,22.13
2019-04-29T03:21:56.339Z,21.63
2019-04-29T03:24:26.818Z,19.23
2019-04-29T03:26:57.342Z,21.90
2019-04-29T03:29:27.789Z,21.93
2019-04-29T03:31:59.355Z,19.33
2019-04-29T03:34:29.966Z,19.90
2019-04-29T03:37:00.376Z,21.17
2019-04-29T03:39:31.207Z,21.50
2019-04-29T03:42:07.407Z,17.20
2019-04-29T03:44:37.591Z,22.87
2019-04-29T03:47:08.184Z,18.87
2019-04-29T03:49:40.163Z,22.80
2019-04-29T03:52:10.584Z,23.13
2019-04-29T03:54:41.152Z,21.30
2019-04-29T03:57:13.204Z,20.57
2019-04-29T03:59:44.105Z,22.57
2019-04-29T04:02:30.070Z,17.23
2019-04-29T04:05:18.510Z,22.13
2019-04-29T04:07:55.654Z,23.87
2019-04-29T04:10:26.220Z,22.10
2019-04-29T04:12:56.611Z,16.07
2019-04-29T04:15:27.048Z,20.40
2019-04-29T04:18:05.485Z,24.90
2019-04-29T04:20:36.145Z,18.47
2019-04-29T04:23:06.464Z,20.37
2019-04-29T04:25:37.078Z,19.53
2019-04-29T04:28:08.761Z,23.43
2019-04-29T04:30:41.149Z,22.40
2019-04-29T04:33:11.501Z,23.60
2019-04-29T04:35:41.905Z,21.63
2019-04-29T04:38:12.237Z,19.20
2019-04-29T04:40:50.950Z,23.60
2019-04-29T04:43:21.268Z,27.50
2019-04-29T04:45:51.679Z,21.80
2019-04-29T04:48:23.835Z,20.73
2019-04-29T04:50:54.228Z,20.03
2019-04-29T04:53:24.557Z,23.07
2019-04-29T04:55:57.079Z,26.40
2019-04-29T04:58:27.436Z,29.67
2019-04-29T05:00:58.790Z,22.30
2019-04-29T05:03:29.123Z,22.37
2019-04-29T05:05:59.521Z,23.90
2019-04-29T05:08:30.236Z,43.30
2019-04-29T05:11:01.547Z,41.60
2019-04-29T05:13:31.972Z,39.00
2019-04-29T05:16:02.466Z,39.30
2019-04-29T05:18:32.858Z,35.27
2019-04-29T05:21:04.598Z,44.40
2019-04-29T05:23:34.947Z,33.27
2019-04-29T05:26:05.275Z,33.77
2019-04-29T05:28:35.633Z,39.23
2019-04-29T05:31:06.086Z,38.70
2019-04-29T05:33:36.432Z,30.10
2019-04-29T05:36:18.591Z,35.63
2019-04-29T05:39:05.115Z,32.53
2019-04-29T05:41:36.383Z,32.43
2019-04-29T05:44:21.837Z,28.27
2019-04-29T05:46:55.971Z,25.00
2019-04-29T05:49:31.599Z,26.63
2019-04-29T05:52:20.037Z,21.20
2019-04-29T05:54:50.468Z,21.70
2019-04-29T05:57:25.440Z,22.97
2019-04-29T05:59:52.823Z,19.40
2019-04-29T06:02:24.094Z,19.10
2019-04-29T06:04:55.290Z,18.93
2019-04-29T06:07:26.953Z,19.90
2019-04-29T06:09:57.590Z,20.70
2019-04-29T06:12:27.979Z,21.83
2019-04-29T06:14:58.367Z,23.73
2019-04-29T06:17:29.157Z,24.00
2019-04-29T06:20:00.523Z,22.03
2019-04-29T06:22:30.902Z,20.23
2019-04-29T06:25:01.257Z,23.63
2019-04-29T06:27:33.342Z,23.17
2019-04-29T06:30:04.960Z,20.93
2019-04-29T06:32:35.652Z,22.40
2019-04-29T06:35:10.545Z,16.97
2019-04-29T06:37:39.878Z,19.43
2019-04-29T06:40:10.646Z,22.60
2019-04-29T06:42:41.462Z,16.80
2019-04-29T06:45:12.464Z,20.30
2019-04-29T06:47:42.835Z,25.33
2019-04-29T06:50:13.376Z,22.77
2019-04-29T06:52:52.183Z,21.70
2019-04-29T06:55:32.150Z,18.80
2019-04-29T06:58:07.770Z,18.07
2019-04-29T07:00:38.929Z,23.17
2019-04-29T07:03:15.875Z,20.80
2019-04-29T07:05:56.437Z,23.50
2019-04-29T07:08:31.289Z,23.53
2019-04-29T07:11:36.498Z,19.97
2019-04-29T07:14:24.151Z,27.10
2019-04-29T07:17:05.570Z,38.67
2019-04-29T07:19:35.896Z,31.43
2019-04-29T07:22:10.016Z,35.77
2019-04-29T07:24:57.230Z,25.90
2019-04-29T07:27:57.354Z,28.07
2019-04-29T07:30:29.627Z,21.77
2019-04-29T07:33:00.045Z,25.77
2019-04-29T07:35:30.441Z,19.87
2019-04-29T07:38:04.457Z,23.70
2019-04-29T07:40:33.298Z,22.07
2019-04-29T07:43:07.762Z,21.17
2019-04-29T07:45:53.686Z,21.53
2019-04-29T07:48:24.110Z,21.43
2019-04-29T07:51:39.526Z,17.70
2019-04-29T07:54:11.068Z,20.00
2019-04-29T07:56:42.449Z,18.87
2019-04-29T07:59:12.457Z,19.37
2019-04-29T08:01:43.158Z,25.77
2019-04-29T08:04:13.553Z,31.40
2019-04-29T08:06:44.945Z,26.40
2019-04-29T08:09:15.481Z,35.87
2019-04-29T08:11:53.405Z,25.03
2019-04-29T08:14:26.477Z,19.53
2019-04-29T08:16:56.804Z,23.40
2019-04-29T08:19:29.504Z,24.27
2019-04-29T08:21:59.557Z,24.30
2019-04-29T08:24:29.904Z,26.57
2019-04-29T08:27:01.323Z,26.17
2019-04-29T08:29:35.813Z,28.43
2019-04-29T08:32:06.458Z,29.37
2019-04-29T08:34:36.906Z,23.83
2019-04-29T08:37:07.260Z,25.27
2019-04-29T08:39:37.830Z,28.50
2019-04-29T08:48:17.785Z,34.87
2019-04-29T08:50:48.287Z,27.60
2019-04-29T08:53:19.590Z,26.63
2019-04-29T08:55:50.060Z,32.23
2019-04-29T08:58:21.402Z,24.97
2019-04-29T09:00:55.736Z,19.70
2019-04-29T09:03:24.414Z,17.03
2019-04-29T09:06:05.273Z,17.10
2019-04-29T09:11:48.033Z,14.47
2019-04-29T09:14:18.621Z,18.60
2019-04-29T09:16:49.027Z,19.30
2019-04-29T09:19:19.487Z,22.97
2019-04-29T09:21:53.042Z,24.70
2019-04-29T09:24:23.406Z,23.70
2019-04-29T09:27:04.997Z,21.83
2019-04-29T09:29:38.044Z,21.50
2019-04-29T09:32:08.472Z,15.40
2019-04-29T09:34:39.916Z,19.87
2019-04-29T09:37:10.228Z,17.10
2019-04-29T09:39:44.049Z,15.87
2019-04-29T09:42:32.137Z,16.30
2019-04-29T09:48:11.041Z,15.87
2019-04-29T09:50:41.927Z,23.37
2019-04-29T09:56:11.762Z,23.87
2019-04-29T09:58:43.065Z,23.93
2019-04-29T10:01:41.961Z,23.00
2019-04-29T10:04:26.533Z,17.70
2019-04-29T10:06:58.566Z,24.50
2019-04-29T10:09:29.326Z,24.00
2019-04-29T10:11:59.909Z,19.47
2019-04-29T10:14:31.124Z,22.80
2019-04-29T10:17:26.958Z,21.17
2019-04-29T10:20:16.347Z,22.90
2019-04-29T10:22:50.194Z,25.80
2019-04-29T10:25:18.961Z,21.63
2019-04-29T10:27:49.377Z,21.83
2019-04-29T10:30:21.249Z,25.03
2019-04-29T10:32:52.718Z,24.00
2019-04-29T10:35:26.227Z,21.43
2019-04-29T10:38:02.803Z,21.13
2019-04-29T10:40:48.118Z,24.73
2019-04-29T10:46:45.159Z,17.30
2019-04-29T10:49:27.115Z,22.30
2019-04-29T10:52:02.495Z,23.90
2019-04-29T10:54:31.225Z,20.90
2019-04-29T10:57:01.959Z,22.37
2019-04-29T10:59:35.912Z,21.37
2019-04-29T11:02:32.817Z,21.63
2019-04-29T11:05:23.126Z,21.93
2019-04-29T11:07:58.077Z,20.80
2019-04-29T11:10:30.337Z,24.10
2019-04-29T11:13:01.045Z,20.07
2019-04-29T11:15:37.961Z,21.53
2019-04-29T11:18:08.476Z,22.00
2019-04-29T11:20:38.753Z,23.97
2019-04-29T11:23:18.391Z,21.83
2019-04-29T11:26:10.819Z,22.70
2019-04-29T11:28:41.525Z,19.50
2019-04-29T11:31:14.454Z,21.80
2019-04-29T11:34:00.575Z,21.00
2019-04-29T11:36:30.925Z,20.37
2019-04-29T11:39:01.249Z,22.13
2019-04-29T11:41:33.640Z,21.43
2019-04-29T11:44:05.340Z,21.33
2019-04-29T11:46:35.654Z,23.70
2019-04-29T11:49:06.923Z,24.47
2019-04-29T11:51:55.931Z,24.93
2019-04-29T11:54:12.837Z,21.23
2019-04-29T11:56:43.386Z,20.53
2019-04-29T11:59:39.905Z,21.83
2019-04-29T12:02:45.545Z,22.10
2019-04-29T12:05:20.385Z,23.47
2019-04-29T12:07:51.828Z,17.93
2019-04-29T12:14:02.728Z,17.93
2019-04-29T12:16:57.025Z,19.63
2019-04-29T12:19:30.323Z,16.50
2019-04-29T12:22:04.885Z,20.13
2019-04-29T12:24:33.598Z,19.63
2019-04-29T12:27:19.870Z,21.80
2019-04-29T12:29:48.931Z,18.60
2019-04-29T12:32:51.031Z,22.53
2019-04-29T12:35:30.230Z,18.17
2019-04-29T12:38:39.814Z,18.43
2019-04-29T12:41:21.045Z,17.00
2019-04-29T12:47:30.917Z,16.83
2019-04-29T12:50:01.653Z,18.40
2019-04-29T12:52:32.622Z,16.30
2019-04-29T12:55:19.291Z,18.27
2019-04-29T12:57:35.185Z,18.33
2019-04-29T13:00:12.688Z,18.83
2019-04-29T13:03:16.707Z,17.77
2019-04-29T13:06:23.579Z,18.67
2019-04-29T13:08:52.956Z,17.10
2019-04-29T13:11:35.982Z,19.07
2019-04-29T13:14:01.409Z,18.37
2019-04-29T13:17:14.385Z,18.70
2019-04-29T13:20:00.756Z,19.00
2019-04-29T13:22:19.757Z,15.33
2019-04-29T13:24:50.513Z,17.63
2019-04-29T13:27:25.220Z,18.67
2019-04-29T13:29:52.845Z,19.27
2019-04-29T13:32:25.328Z,16.80
2019-04-29T13:35:00.247Z,15.37
2019-04-29T13:37:28.842Z,17.27
2019-04-29T13:39:59.122Z,18.70
2019-04-29T13:42:29.883Z,16.17
2019-04-29T13:45:07.853Z,17.07
2019-04-29T13:48:01.789Z,18.50
2019-04-29T13:50:40.165Z,15.90
2019-04-29T13:56:11.602Z,17.73
2019-04-29T13:58:35.887Z,18.23
2019-04-29T14:01:33.462Z,16.00
2019-04-29T14:06:57.043Z,13.00
2019-04-29T14:09:23.510Z,17.83
2019-04-29T14:12:02.095Z,15.13
2019-04-29T14:14:30.400Z,16.70
2019-04-29T14:17:24.136Z,16.13
2019-04-29T14:20:00.388Z,14.80
2019-04-29T14:22:32.849Z,17.33
2019-04-29T14:27:55.095Z,14.63
2019-04-29T14:30:37.818Z,16.40
2019-04-29T14:33:01.918Z,15.97
2019-04-29T14:35:39.224Z,16.37
2019-04-29T14:38:09.563Z,15.77
2019-04-29T14:40:42.830Z,14.80
2019-04-29T14:43:28.918Z,16.30
2019-04-29T14:48:52.938Z,15.37
2019-04-29T14:51:27.938Z,17.70
2019-04-29T14:53:57.171Z,13.33
2019-04-29T14:56:28.792Z,12.53
2019-04-29T14:59:06.624Z,13.57
2019-04-29T15:01:49.477Z,12.40
2019-04-29T15:04:28.980Z,13.03
2019-04-29T15:06:59.517Z,11.57
2019-04-29T15:09:30.098Z,10.90
2019-04-29T15:12:11.323Z,10.67
2019-04-29T15:15:02.896Z,11.70
2019-04-29T15:18:15.505Z,12.20
2019-04-29T15:20:44.668Z,12.80
2019-04-29T15:23:28.942Z,12.50
2019-04-29T15:25:58.505Z,11.80
2019-04-29T15:28:28.812Z,12.63
2019-04-29T15:30:59.129Z,9.77
2019-04-29T15:33:30.551Z,10.47
2019-04-29T15:36:03.449Z,11.13
2019-04-29T15:38:33.825Z,12.87
2019-04-29T15:41:05.770Z,10.70
2019-04-29T15:43:47.381Z,11.90
2019-04-29T15:46:11.313Z,12.07
2019-04-29T15:48:40.925Z,12.33
2019-04-29T15:51:13.885Z,10.67
2019-04-29T15:53:43.651Z,10.53
2019-04-29T15:56:28.185Z,11.23
2019-04-29T15:58:46.132Z,12.87
2019-04-29T16:01:18.105Z,13.23
2019-04-29T16:03:54.762Z,16.53
2019-04-29T16:06:43.553Z,12.17
2019-04-29T16:09:30.400Z,12.47
2019-04-29T16:12:27.540Z,15.03
2019-04-29T16:14:58.971Z,12.10
2019-04-29T16:17:31.942Z,12.07
2019-04-29T16:20:01.473Z,15.43
2019-04-29T16:22:36.101Z,15.20
2019-04-29T16:25:04.934Z,15.70
2019-04-29T16:27:41.001Z,12.77
2019-04-29T16:30:20.117Z,14.47
2019-04-29T16:32:50.429Z,13.00
2019-04-29T16:35:23.680Z,14.23
2019-04-29T16:37:53.289Z,14.17
2019-04-29T16:40:25.560Z,15.67
2019-04-29T16:43:04.291Z,14.90
2019-04-29T16:45:51.427Z,13.30
2019-04-29T16:48:22.303Z,14.03
2019-04-29T16:50:52.687Z,12.37
2019-04-29T16:53:23.073Z,13.50
2019-04-29T16:55:53.459Z,16.97
2019-04-29T16:58:23.931Z,11.20
2019-04-29T17:00:54.877Z,14.43
2019-04-29T17:03:25.309Z,13.87
2019-04-29T17:05:55.633Z,14.80
2019-04-29T17:08:34.900Z,13.17
2019-04-29T17:11:17.389Z,17.10
2019-04-29T17:13:46.877Z,13.90
2019-04-29T17:16:19.862Z,15.17
2019-04-29T17:18:50.853Z,13.17
2019-04-29T17:21:21.250Z,15.37
2019-04-29T17:23:52.703Z,13.33
2019-04-29T17:26:25.113Z,12.10
2019-04-29T17:29:11.973Z,12.30
2019-04-29T17:31:57.119Z,15.47
2019-04-29T17:34:56.117Z,14.83
2019-04-29T17:37:00.733Z,15.60
2019-04-29T17:39:31.603Z,13.40
2019-04-29T17:42:01.960Z,15.80
2019-04-29T17:44:44.200Z,15.17
2019-04-29T17:47:34.786Z,14.70
2019-04-29T17:50:46.197Z,12.73
2019-04-29T17:53:21.760Z,14.07
2019-04-29T17:56:01.453Z,15.00
2019-04-29T17:58:36.621Z,12.47
2019-04-29T18:01:43.385Z,15.67
2019-04-29T18:04:30.491Z,17.53
2019-04-29T18:07:21.945Z,17.07
2019-04-29T18:09:56.684Z,17.03
2019-04-29T18:12:26.991Z,16.83
2019-04-29T18:14:57.333Z,16.40
2019-04-29T18:17:31.491Z,14.60
2019-04-29T18:20:35.730Z,12.23
2019-04-29T18:23:19.287Z,13.00
2019-04-29T18:25:55.467Z,13.90
2019-04-29T18:28:26.032Z,15.60
2019-04-29T18:30:57.955Z,17.20
2019-04-29T18:33:30.265Z,17.97
2019-04-29T18:36:04.567Z,13.53
2019-04-29T18:38:35.077Z,15.63
2019-04-29T18:41:28.132Z,17.73
2019-04-29T18:44:02.875Z,13.87
2019-04-29T18:46:29.175Z,16.40
2019-04-29T18:49:03.348Z,16.10
2019-04-29T18:51:35.343Z,17.40
2019-04-29T18:54:06.226Z,14.90
2019-04-29T18:56:37.814Z,17.63
2019-04-29T18:59:10.149Z,16.07
2019-04-29T19:02:07.898Z,14.03
2019-04-29T19:04:53.406Z,15.00
2019-04-29T19:07:25.448Z,13.43
2019-04-29T19:09:56.435Z,14.17
2019-04-29T19:12:27.169Z,15.73
2019-04-29T19:15:04.506Z,16.50
2019-04-29T19:17:30.888Z,14.77
2019-04-29T19:20:02.008Z,16.73
2019-04-29T19:22:35.929Z,15.90
2019-04-29T19:25:11.731Z,17.23
2019-04-29T19:27:40.722Z,19.00
2019-04-29T19:30:14.285Z,17.23
2019-04-29T19:33:05.435Z,16.20
2019-04-29T19:35:38.569Z,17.80
2019-04-29T19:38:12.483Z,20.07
2019-04-29T19:40:42.525Z,15.10
2019-04-29T19:43:15.334Z,18.53
2019-04-29T19:45:48.515Z,20.60
2019-04-29T19:48:16.517Z,22.20
2019-04-29T19:50:50.056Z,17.60
2019-04-29T19:53:19.771Z,19.97
2019-04-29T19:56:02.225Z,18.90
2019-04-29T19:58:31.192Z,26.57
2019-04-29T20:01:10.842Z,19.63
2019-04-29T20:03:37.760Z,21.23
2019-04-29T20:06:21.548Z,21.53
2019-04-29T20:08:53.933Z,18.40
2019-04-29T20:11:19.032Z,15.23
2019-04-29T20:14:02.453Z,19.50
2019-04-29T20:16:54.647Z,16.30
2019-04-29T20:19:41.039Z,19.17
2019-04-29T20:22:11.786Z,18.50
2019-04-29T20:24:49.586Z,15.63
2019-04-29T20:27:15.180Z,17.67
2019-04-29T20:29:45.966Z,17.80
2019-04-29T20:32:17.024Z,19.77
2019-04-29T20:34:47.579Z,19.47
2019-04-29T20:37:19.718Z,15.90
2019-04-29T20:39:52.204Z,17.90
2019-04-29T20:42:25.933Z,23.23
2019-04-29T20:44:56.497Z,18.53
2019-04-29T20:47:37.586Z,18.50
2019-04-29T20:50:00.025Z,18.80
2019-04-29T20:52:40.593Z,20.47
2019-04-29T20:55:11.601Z,24.03
2019-04-29T20:57:42.140Z,19.73
2019-04-29T21:00:13.818Z,19.93
2019-04-29T21:02:45.463Z,19.97
2019-04-29T21:05:23.144Z,18.13
2019-04-29T21:07:49.217Z,20.60
2019-04-29T21:10:20.167Z,21.10
2019-04-29T21:13:19.882Z,20.00
2019-04-29T21:15:59.633Z,18.33
2019-04-29T21:18:30.260Z,22.70
2019-04-29T21:21:04.612Z,18.43
2019-04-29T21:23:35.384Z,19.77
2019-04-29T21:26:08.744Z,23.80
2019-04-29T21:28:41.790Z,19.40
2019-04-29T21:31:11.689Z,17.33
2019-04-29T21:33:42.953Z,15.03
2019-04-29T21:36:20.576Z,21.17
2019-04-29T21:39:12.873Z,16.80
2019-04-29T21:41:55.537Z,18.70
2019-04-29T21:44:27.897Z,18.07
2019-04-29T21:46:59.748Z,20.13
2019-04-29T21:49:30.031Z,18.93
2019-04-29T21:52:01.205Z,18.53
2019-04-29T21:54:31.705Z,19.20
2019-04-29T21:57:03.394Z,17.53
2019-04-29T21:59:35.735Z,17.20
2019-04-29T22:02:11.421Z,19.73
2019-04-29T22:04:41.158Z,22.80
2019-04-29T22:07:15.512Z,18.50
2019-04-29T22:09:50.002Z,18.47
2019-04-29T22:12:20.278Z,18.00
2019-04-29T22:14:53.666Z,18.57
2019-04-29T22:17:26.330Z,18.40
2019-04-29T22:19:57.397Z,20.70
2019-04-29T22:22:25.919Z,23.90
2019-04-29T22:24:57.659Z,21.20
2019-04-29T22:27:34.214Z,19.27
2019-04-29T22:30:02.066Z,23.80
2019-04-29T22:32:32.520Z,21.70
2019-04-29T22:35:02.861Z,20.87
2019-04-29T22:37:34.703Z,19.93
2019-04-29T22:40:06.465Z,26.40
2019-04-29T22:42:48.813Z,17.33
2019-04-29T22:45:19.330Z,21.67
2019-04-29T22:47:54.409Z,24.53
2019-04-29T22:50:21.595Z,19.00
2019-04-29T22:52:51.965Z,21.67
2019-04-29T22:55:22.283Z,22.50
2019-04-29T22:57:55.451Z,23.03
2019-04-29T23:00:32.624Z,25.97
2019-04-29T23:03:02.216Z,27.27
2019-04-29T23:05:32.145Z,21.47
2019-04-29T23:08:02.533Z,21.80
2019-04-29T23:10:32.860Z,28.53
2019-04-29T23:13:03.423Z,25.03
2019-04-29T23:15:35.698Z,23.83
2019-04-29T23:18:07.003Z,25.40
2019-04-29T23:20:52.487Z,27.47
2019-04-29T23:23:33.759Z,25.63
2019-04-29T23:26:04.174Z,23.63
2019-04-29T23:28:35.964Z,25.83
2019-04-29T23:31:07.329Z,24.73
2019-04-29T23:33:37.648Z,26.10
2019-04-29T23:36:09.724Z,24.97
2019-04-29T23:38:42.776Z,28.70
2019-04-29T23:41:15.312Z,28.93
2019-04-29T23:43:46.963Z,26.73
2019-04-29T23:46:17.319Z,33.20
2019-04-29T23:48:47.665Z,29.10
2019-04-29T23:51:17.967Z,34.33
2019-04-29T23:53:48.293Z,24.37
2019-04-29T23:56:20.533Z,31.53
2019-04-29T23:58:56.877Z,24.83
